sensor_id;sensor_type;location;lat;lon;timestamp;P1;durP1;ratioP1;P2;durP2;ratioP2
57105;SDS011;62662;56.788;23.942;2022-11-13T00:01:17;22.35;;;6.32;;
57105;SDS011;62662;56.788;23.942;2022-11-13T00:03:46;28.40;;;6.72;;
57105;SDS011;62662;56.788;23.942;2022-11-13T00:06:14;25.83;;;6.93;;
57105;SDS011;62662;56.788;23.942;2022-11-13T00:08:41;29.88;;;6.85;;
57105;SDS011;62662;56.788;23.942;2022-11-13T00:11:09;23.30;;;5.93;;
57105;SDS011;62662;56.788;23.942;2022-11-13T00:13:40;18.80;;;6.35;;
57105;SDS011;62662;56.788;23.942;2022-11-13T00:16:12;24.75;;;6.85;;
57105;SDS011;62662;56.788;23.942;2022-11-13T00:18:41;16.13;;;5.75;;
57105;SDS011;62662;56.788;23.942;2022-11-13T00:21:10;24.15;;;5.50;;
57105;SDS011;62662;56.788;23.942;2022-11-13T00:23:43;23.40;;;6.15;;
57105;SDS011;62662;56.788;23.942;2022-11-13T00:26:14;24.00;;;5.93;;
57105;SDS011;62662;56.788;23.942;2022-11-13T00:28:42;22.55;;;5.93;;
57105;SDS011;62662;56.788;23.942;2022-11-13T00:31:11;22.98;;;6.53;;
57105;SDS011;62662;56.788;23.942;2022-11-13T00:33:39;25.45;;;5.90;;
57105;SDS011;62662;56.788;23.942;2022-11-13T00:36:27;22.65;;;5.50;;
57105;SDS011;62662;56.788;23.942;2022-11-13T00:38:54;24.95;;;6.32;;
57105;SDS011;62662;56.788;23.942;2022-11-13T00:41:22;19.25;;;6.03;;
57105;SDS011;62662;56.788;23.942;2022-11-13T00:43:50;18.00;;;6.22;;
57105;SDS011;62662;56.788;23.942;2022-11-13T00:46:17;16.75;;;4.93;;
57105;SDS011;62662;56.788;23.942;2022-11-13T00:48:45;22.27;;;6.10;;
57105;SDS011;62662;56.788;23.942;2022-11-13T00:51:12;18.58;;;5.97;;
57105;SDS011;62662;56.788;23.942;2022-11-13T00:53:39;22.88;;;5.93;;
57105;SDS011;62662;56.788;23.942;2022-11-13T00:56:06;19.48;;;5.68;;
57105;SDS011;62662;56.788;23.942;2022-11-13T00:58:33;16.80;;;4.75;;
57105;SDS011;62662;56.788;23.942;2022-11-13T01:01:04;14.07;;;4.68;;
57105;SDS011;62662;56.788;23.942;2022-11-13T01:03:33;17.30;;;5.20;;
57105;SDS011;62662;56.788;23.942;2022-11-13T01:06:00;21.13;;;5.57;;
57105;SDS011;62662;56.788;23.942;2022-11-13T01:08:33;17.23;;;5.00;;
57105;SDS011;62662;56.788;23.942;2022-11-13T01:11:06;24.90;;;5.40;;
57105;SDS011;62662;56.788;23.942;2022-11-13T01:16:05;14.57;;;5.15;;
57105;SDS011;62662;56.788;23.942;2022-11-13T01:18:34;19.33;;;5.13;;
57105;SDS011;62662;56.788;23.942;2022-11-13T01:21:05;23.77;;;5.63;;
57105;SDS011;62662;56.788;23.942;2022-11-13T01:23:34;18.20;;;4.65;;
57105;SDS011;62662;56.788;23.942;2022-11-13T01:28:40;18.27;;;5.45;;
57105;SDS011;62662;56.788;23.942;2022-11-13T01:31:09;19.42;;;6.28;;
57105;SDS011;62662;56.788;23.942;2022-11-13T01:33:38;26.67;;;5.78;;
57105;SDS011;62662;56.788;23.942;2022-11-13T01:36:06;23.65;;;6.10;;
57105;SDS011;62662;56.788;23.942;2022-11-13T01:38:36;18.65;;;5.28;;
57105;SDS011;62662;56.788;23.942;2022-11-13T01:41:04;17.90;;;5.28;;
57105;SDS011;62662;56.788;23.942;2022-11-13T01:43:33;17.05;;;4.43;;
57105;SDS011;62662;56.788;23.942;2022-11-13T01:48:41;21.10;;;5.60;;
57105;SDS011;62662;56.788;23.942;2022-11-13T01:51:35;19.13;;;5.32;;
57105;SDS011;62662;56.788;23.942;2022-11-13T01:54:27;19.73;;;5.05;;
57105;SDS011;62662;56.788;23.942;2022-11-13T01:56:57;13.85;;;5.07;;
57105;SDS011;62662;56.788;23.942;2022-11-13T01:59:30;17.58;;;5.45;;
57105;SDS011;62662;56.788;23.942;2022-11-13T02:01:59;15.65;;;4.90;;
57105;SDS011;62662;56.788;23.942;2022-11-13T02:04:27;13.23;;;4.75;;
57105;SDS011;62662;56.788;23.942;2022-11-13T02:06:56;16.90;;;5.03;;
57105;SDS011;62662;56.788;23.942;2022-11-13T02:09:28;21.10;;;5.55;;
57105;SDS011;62662;56.788;23.942;2022-11-13T02:11:59;15.23;;;5.65;;
57105;SDS011;62662;56.788;23.942;2022-11-13T02:14:27;14.35;;;4.35;;
57105;SDS011;62662;56.788;23.942;2022-11-13T02:16:56;22.40;;;5.38;;
57105;SDS011;62662;56.788;23.942;2022-11-13T02:19:29;11.13;;;4.57;;
57105;SDS011;62662;56.788;23.942;2022-11-13T02:22:05;18.42;;;4.97;;
57105;SDS011;62662;56.788;23.942;2022-11-13T02:24:56;15.25;;;4.65;;
57105;SDS011;62662;56.788;23.942;2022-11-13T02:27:29;23.02;;;5.78;;
57105;SDS011;62662;56.788;23.942;2022-11-13T02:30:15;14.75;;;4.97;;
57105;SDS011;62662;56.788;23.942;2022-11-13T02:32:52;19.73;;;4.97;;
57105;SDS011;62662;56.788;23.942;2022-11-13T02:35:21;12.05;;;5.22;;
57105;SDS011;62662;56.788;23.942;2022-11-13T02:37:53;20.00;;;4.85;;
57105;SDS011;62662;56.788;23.942;2022-11-13T02:40:21;13.85;;;5.10;;
57105;SDS011;62662;56.788;23.942;2022-11-13T02:42:49;20.90;;;5.55;;
57105;SDS011;62662;56.788;23.942;2022-11-13T02:45:16;11.65;;;4.80;;
57105;SDS011;62662;56.788;23.942;2022-11-13T02:47:43;15.43;;;5.65;;
57105;SDS011;62662;56.788;23.942;2022-11-13T02:50:11;13.95;;;5.28;;
57105;SDS011;62662;56.788;23.942;2022-11-13T02:52:38;11.82;;;5.32;;
57105;SDS011;62662;56.788;23.942;2022-11-13T02:55:05;24.88;;;6.03;;
57105;SDS011;62662;56.788;23.942;2022-11-13T02:57:33;11.10;;;4.43;;
57105;SDS011;62662;56.788;23.942;2022-11-13T03:00:00;13.25;;;4.47;;
57105;SDS011;62662;56.788;23.942;2022-11-13T03:02:27;14.02;;;4.65;;
57105;SDS011;62662;56.788;23.942;2022-11-13T03:04:53;17.30;;;5.95;;
57105;SDS011;62662;56.788;23.942;2022-11-13T03:07:39;13.65;;;5.47;;
57105;SDS011;62662;56.788;23.942;2022-11-13T03:10:06;13.27;;;4.47;;
57105;SDS011;62662;56.788;23.942;2022-11-13T03:12:34;21.25;;;4.65;;
57105;SDS011;62662;56.788;23.942;2022-11-13T03:15:03;12.80;;;4.90;;
57105;SDS011;62662;56.788;23.942;2022-11-13T03:17:31;13.30;;;4.65;;
57105;SDS011;62662;56.788;23.942;2022-11-13T03:19:58;15.77;;;4.93;;
57105;SDS011;62662;56.788;23.942;2022-11-13T03:22:25;11.48;;;4.38;;
57105;SDS011;62662;56.788;23.942;2022-11-13T03:24:53;17.02;;;4.03;;
57105;SDS011;62662;56.788;23.942;2022-11-13T03:27:19;14.27;;;4.47;;
57105;SDS011;62662;56.788;23.942;2022-11-13T03:29:46;11.82;;;4.30;;
57105;SDS011;62662;56.788;23.942;2022-11-13T03:32:13;14.27;;;4.05;;
57105;SDS011;62662;56.788;23.942;2022-11-13T03:34:40;13.23;;;4.40;;
57105;SDS011;62662;56.788;23.942;2022-11-13T03:37:07;8.65;;;4.32;;
57105;SDS011;62662;56.788;23.942;2022-11-13T03:39:34;12.05;;;3.85;;
57105;SDS011;62662;56.788;23.942;2022-11-13T03:42:01;15.77;;;3.65;;
57105;SDS011;62662;56.788;23.942;2022-11-13T03:44:28;10.80;;;4.32;;
57105;SDS011;62662;56.788;23.942;2022-11-13T03:46:55;7.57;;;3.92;;
57105;SDS011;62662;56.788;23.942;2022-11-13T03:49:22;11.35;;;4.50;;
57105;SDS011;62662;56.788;23.942;2022-11-13T03:51:49;12.73;;;4.82;;
57105;SDS011;62662;56.788;23.942;2022-11-13T03:54:16;11.80;;;4.80;;
57105;SDS011;62662;56.788;23.942;2022-11-13T03:56:43;13.73;;;4.60;;
57105;SDS011;62662;56.788;23.942;2022-11-13T03:59:10;9.02;;;3.80;;
57105;SDS011;62662;56.788;23.942;2022-11-13T04:01:37;12.65;;;4.55;;
57105;SDS011;62662;56.788;23.942;2022-11-13T04:04:03;7.65;;;4.15;;
57105;SDS011;62662;56.788;23.942;2022-11-13T04:06:30;6.07;;;3.50;;
57105;SDS011;62662;56.788;23.942;2022-11-13T04:08:57;14.23;;;4.70;;
57105;SDS011;62662;56.788;23.942;2022-11-13T04:11:24;9.07;;;4.55;;
57105;SDS011;62662;56.788;23.942;2022-11-13T04:13:51;8.65;;;4.28;;
57105;SDS011;62662;56.788;23.942;2022-11-13T04:16:18;13.00;;;4.55;;
57105;SDS011;62662;56.788;23.942;2022-11-13T04:18:45;11.43;;;4.13;;
57105;SDS011;62662;56.788;23.942;2022-11-13T04:21:12;6.78;;;3.75;;
57105;SDS011;62662;56.788;23.942;2022-11-13T04:23:39;6.90;;;3.58;;
57105;SDS011;62662;56.788;23.942;2022-11-13T04:26:06;7.82;;;3.85;;
57105;SDS011;62662;56.788;23.942;2022-11-13T04:28:33;8.35;;;3.40;;
57105;SDS011;62662;56.788;23.942;2022-11-13T04:31:00;8.18;;;3.60;;
57105;SDS011;62662;56.788;23.942;2022-11-13T04:33:27;13.27;;;3.63;;
57105;SDS011;62662;56.788;23.942;2022-11-13T04:35:54;8.15;;;3.92;;
57105;SDS011;62662;56.788;23.942;2022-11-13T04:38:22;10.40;;;3.38;;
57105;SDS011;62662;56.788;23.942;2022-11-13T04:40:49;7.65;;;3.75;;
57105;SDS011;62662;56.788;23.942;2022-11-13T04:43:36;7.28;;;3.50;;
57105;SDS011;62662;56.788;23.942;2022-11-13T04:46:03;6.53;;;3.58;;
57105;SDS011;62662;56.788;23.942;2022-11-13T04:48:30;14.40;;;3.67;;
57105;SDS011;62662;56.788;23.942;2022-11-13T04:50:57;7.22;;;3.53;;
57105;SDS011;62662;56.788;23.942;2022-11-13T04:53:24;9.23;;;3.95;;
57105;SDS011;62662;56.788;23.942;2022-11-13T04:55:52;8.25;;;4.00;;
57105;SDS011;62662;56.788;23.942;2022-11-13T04:58:18;9.10;;;3.70;;
57105;SDS011;62662;56.788;23.942;2022-11-13T05:00:46;5.85;;;3.20;;
57105;SDS011;62662;56.788;23.942;2022-11-13T05:03:13;8.82;;;3.53;;
57105;SDS011;62662;56.788;23.942;2022-11-13T05:05:39;6.32;;;3.35;;
57105;SDS011;62662;56.788;23.942;2022-11-13T05:08:06;6.50;;;3.47;;
57105;SDS011;62662;56.788;23.942;2022-11-13T05:10:34;8.77;;;4.03;;
57105;SDS011;62662;56.788;23.942;2022-11-13T05:13:01;13.85;;;4.22;;
57105;SDS011;62662;56.788;23.942;2022-11-13T05:15:27;8.90;;;3.60;;
57105;SDS011;62662;56.788;23.942;2022-11-13T05:17:55;11.43;;;3.40;;
57105;SDS011;62662;56.788;23.942;2022-11-13T05:20:22;10.05;;;3.78;;
57105;SDS011;62662;56.788;23.942;2022-11-13T05:22:49;8.35;;;3.50;;
57105;SDS011;62662;56.788;23.942;2022-11-13T05:25:15;10.55;;;4.38;;
57105;SDS011;62662;56.788;23.942;2022-11-13T05:27:42;7.97;;;3.38;;
57105;SDS011;62662;56.788;23.942;2022-11-13T05:30:09;5.75;;;3.00;;
57105;SDS011;62662;56.788;23.942;2022-11-13T05:32:36;4.57;;;3.33;;
57105;SDS011;62662;56.788;23.942;2022-11-13T05:35:03;8.35;;;3.33;;
57105;SDS011;62662;56.788;23.942;2022-11-13T05:37:30;11.27;;;3.40;;
57105;SDS011;62662;56.788;23.942;2022-11-13T05:39:57;9.38;;;3.45;;
57105;SDS011;62662;56.788;23.942;2022-11-13T05:42:24;6.40;;;3.33;;
57105;SDS011;62662;56.788;23.942;2022-11-13T05:44:51;7.90;;;3.45;;
57105;SDS011;62662;56.788;23.942;2022-11-13T05:47:18;7.63;;;3.55;;
57105;SDS011;62662;56.788;23.942;2022-11-13T05:49:45;7.07;;;3.80;;
57105;SDS011;62662;56.788;23.942;2022-11-13T05:52:12;6.65;;;3.35;;
57105;SDS011;62662;56.788;23.942;2022-11-13T05:54:39;6.18;;;3.83;;
57105;SDS011;62662;56.788;23.942;2022-11-13T05:57:06;14.75;;;3.67;;
57105;SDS011;62662;56.788;23.942;2022-11-13T05:59:33;10.32;;;3.45;;
57105;SDS011;62662;56.788;23.942;2022-11-13T06:02:00;6.25;;;3.60;;
57105;SDS011;62662;56.788;23.942;2022-11-13T06:04:27;8.02;;;3.55;;
57105;SDS011;62662;56.788;23.942;2022-11-13T06:06:54;10.95;;;3.90;;
57105;SDS011;62662;56.788;23.942;2022-11-13T06:09:21;8.57;;;3.47;;
57105;SDS011;62662;56.788;23.942;2022-11-13T06:11:48;9.93;;;3.72;;
57105;SDS011;62662;56.788;23.942;2022-11-13T06:14:15;9.43;;;4.32;;
57105;SDS011;62662;56.788;23.942;2022-11-13T06:16:42;9.20;;;4.28;;
57105;SDS011;62662;56.788;23.942;2022-11-13T06:19:09;8.40;;;3.83;;
57105;SDS011;62662;56.788;23.942;2022-11-13T06:21:37;14.70;;;3.83;;
57105;SDS011;62662;56.788;23.942;2022-11-13T06:24:06;10.00;;;4.25;;
57105;SDS011;62662;56.788;23.942;2022-11-13T06:26:35;9.07;;;4.22;;
57105;SDS011;62662;56.788;23.942;2022-11-13T06:29:04;7.95;;;3.88;;
57105;SDS011;62662;56.788;23.942;2022-11-13T06:31:33;9.23;;;4.03;;
57105;SDS011;62662;56.788;23.942;2022-11-13T06:34:01;8.73;;;3.78;;
57105;SDS011;62662;56.788;23.942;2022-11-13T06:36:31;9.43;;;4.10;;
57105;SDS011;62662;56.788;23.942;2022-11-13T06:39:00;17.05;;;3.97;;
57105;SDS011;62662;56.788;23.942;2022-11-13T06:41:30;13.90;;;5.10;;
57105;SDS011;62662;56.788;23.942;2022-11-13T06:43:58;10.57;;;4.15;;
57105;SDS011;62662;56.788;23.942;2022-11-13T06:46:29;12.55;;;4.45;;
57105;SDS011;62662;56.788;23.942;2022-11-13T06:48:56;12.73;;;5.20;;
57105;SDS011;62662;56.788;23.942;2022-11-13T06:51:26;13.55;;;4.43;;
57105;SDS011;62662;56.788;23.942;2022-11-13T06:53:54;12.40;;;4.32;;
57105;SDS011;62662;56.788;23.942;2022-11-13T06:56:22;12.18;;;4.22;;
57105;SDS011;62662;56.788;23.942;2022-11-13T06:58:50;10.52;;;4.05;;
57105;SDS011;62662;56.788;23.942;2022-11-13T07:01:19;7.53;;;3.88;;
57105;SDS011;62662;56.788;23.942;2022-11-13T07:03:47;7.60;;;3.70;;
57105;SDS011;62662;56.788;23.942;2022-11-13T07:06:16;10.20;;;3.95;;
57105;SDS011;62662;56.788;23.942;2022-11-13T07:08:48;6.38;;;4.05;;
57105;SDS011;62662;56.788;23.942;2022-11-13T07:11:19;9.68;;;5.40;;
57105;SDS011;62662;56.788;23.942;2022-11-13T07:13:48;13.32;;;7.05;;
57105;SDS011;62662;56.788;23.942;2022-11-13T07:16:17;14.48;;;7.30;;
57105;SDS011;62662;56.788;23.942;2022-11-13T07:18:50;17.63;;;7.72;;
57105;SDS011;62662;56.788;23.942;2022-11-13T07:21:19;14.20;;;8.07;;
57105;SDS011;62662;56.788;23.942;2022-11-13T07:23:48;13.00;;;8.45;;
57105;SDS011;62662;56.788;23.942;2022-11-13T07:26:15;15.02;;;8.68;;
57105;SDS011;62662;56.788;23.942;2022-11-13T07:28:43;13.85;;;6.20;;
57105;SDS011;62662;56.788;23.942;2022-11-13T07:31:11;8.98;;;4.95;;
57105;SDS011;62662;56.788;23.942;2022-11-13T07:33:39;7.72;;;3.78;;
57105;SDS011;62662;56.788;23.942;2022-11-13T07:36:07;7.88;;;3.03;;
57105;SDS011;62662;56.788;23.942;2022-11-13T07:38:34;7.00;;;2.83;;
57105;SDS011;62662;56.788;23.942;2022-11-13T07:41:02;7.65;;;3.20;;
57105;SDS011;62662;56.788;23.942;2022-11-13T07:43:30;7.70;;;2.72;;
57105;SDS011;62662;56.788;23.942;2022-11-13T07:45:59;5.80;;;2.67;;
57105;SDS011;62662;56.788;23.942;2022-11-13T07:48:28;8.60;;;2.60;;
57105;SDS011;62662;56.788;23.942;2022-11-13T07:50:59;7.82;;;3.00;;
57105;SDS011;62662;56.788;23.942;2022-11-13T07:53:27;9.00;;;3.65;;
57105;SDS011;62662;56.788;23.942;2022-11-13T07:55:55;7.30;;;3.30;;
57105;SDS011;62662;56.788;23.942;2022-11-13T07:58:25;9.05;;;4.35;;
57105;SDS011;62662;56.788;23.942;2022-11-13T08:00:53;6.68;;;3.33;;
57105;SDS011;62662;56.788;23.942;2022-11-13T08:03:20;7.20;;;3.30;;
57105;SDS011;62662;56.788;23.942;2022-11-13T08:05:47;6.93;;;3.05;;
57105;SDS011;62662;56.788;23.942;2022-11-13T08:08:14;5.00;;;2.85;;
57105;SDS011;62662;56.788;23.942;2022-11-13T08:10:41;9.07;;;2.90;;
57105;SDS011;62662;56.788;23.942;2022-11-13T08:13:09;3.15;;;2.13;;
57105;SDS011;62662;56.788;23.942;2022-11-13T08:15:37;4.20;;;2.15;;
57105;SDS011;62662;56.788;23.942;2022-11-13T08:18:04;3.10;;;2.00;;
57105;SDS011;62662;56.788;23.942;2022-11-13T08:20:32;4.13;;;2.25;;
57105;SDS011;62662;56.788;23.942;2022-11-13T08:23:00;5.45;;;2.38;;
57105;SDS011;62662;56.788;23.942;2022-11-13T08:25:29;3.97;;;2.30;;
57105;SDS011;62662;56.788;23.942;2022-11-13T08:27:57;4.60;;;2.53;;
57105;SDS011;62662;56.788;23.942;2022-11-13T08:30:25;5.10;;;2.00;;
57105;SDS011;62662;56.788;23.942;2022-11-13T08:32:54;3.42;;;1.77;;
57105;SDS011;62662;56.788;23.942;2022-11-13T08:35:21;4.18;;;1.50;;
57105;SDS011;62662;56.788;23.942;2022-11-13T08:37:59;2.35;;;1.33;;
57105;SDS011;62662;56.788;23.942;2022-11-13T08:40:30;4.88;;;2.08;;
57105;SDS011;62662;56.788;23.942;2022-11-13T08:42:59;2.95;;;1.50;;
57105;SDS011;62662;56.788;23.942;2022-11-13T08:45:28;3.78;;;2.05;;
57105;SDS011;62662;56.788;23.942;2022-11-13T08:47:59;6.22;;;1.77;;
57105;SDS011;62662;56.788;23.942;2022-11-13T08:50:27;4.43;;;2.05;;
57105;SDS011;62662;56.788;23.942;2022-11-13T08:52:55;5.03;;;1.77;;
57105;SDS011;62662;56.788;23.942;2022-11-13T08:55:23;4.53;;;1.75;;
57105;SDS011;62662;56.788;23.942;2022-11-13T08:57:51;3.78;;;1.70;;
57105;SDS011;62662;56.788;23.942;2022-11-13T09:00:19;5.43;;;1.70;;
57105;SDS011;62662;56.788;23.942;2022-11-13T09:02:46;5.18;;;1.70;;
57105;SDS011;62662;56.788;23.942;2022-11-13T09:05:13;3.58;;;1.50;;
57105;SDS011;62662;56.788;23.942;2022-11-13T09:07:40;3.70;;;1.48;;
57105;SDS011;62662;56.788;23.942;2022-11-13T09:10:07;5.00;;;1.65;;
57105;SDS011;62662;56.788;23.942;2022-11-13T09:12:34;2.97;;;1.30;;
57105;SDS011;62662;56.788;23.942;2022-11-13T09:15:01;3.92;;;1.20;;
57105;SDS011;62662;56.788;23.942;2022-11-13T09:17:28;3.78;;;1.60;;
57105;SDS011;62662;56.788;23.942;2022-11-13T09:19:55;5.78;;;1.70;;
57105;SDS011;62662;56.788;23.942;2022-11-13T09:22:29;3.60;;;1.52;;
57105;SDS011;62662;56.788;23.942;2022-11-13T09:25:02;4.03;;;1.33;;
57105;SDS011;62662;56.788;23.942;2022-11-13T09:27:29;2.85;;;1.40;;
57105;SDS011;62662;56.788;23.942;2022-11-13T09:29:56;3.03;;;1.27;;
57105;SDS011;62662;56.788;23.942;2022-11-13T09:32:23;6.03;;;1.60;;
57105;SDS011;62662;56.788;23.942;2022-11-13T09:34:50;5.28;;;1.50;;
57105;SDS011;62662;56.788;23.942;2022-11-13T09:37:17;3.95;;;1.50;;
57105;SDS011;62662;56.788;23.942;2022-11-13T09:39:44;5.28;;;1.35;;
57105;SDS011;62662;56.788;23.942;2022-11-13T09:44:52;7.95;;;1.83;;
57105;SDS011;62662;56.788;23.942;2022-11-13T09:47:46;4.80;;;1.88;;
57105;SDS011;62662;56.788;23.942;2022-11-13T09:50:19;5.15;;;1.60;;
57105;SDS011;62662;56.788;23.942;2022-11-13T09:52:50;4.07;;;1.85;;
57105;SDS011;62662;56.788;23.942;2022-11-13T09:55:19;5.28;;;1.60;;
57105;SDS011;62662;56.788;23.942;2022-11-13T09:58:11;4.05;;;1.52;;
57105;SDS011;62662;56.788;23.942;2022-11-13T10:00:47;2.97;;;1.55;;
57105;SDS011;62662;56.788;23.942;2022-11-13T10:03:29;4.00;;;1.90;;
57105;SDS011;62662;56.788;23.942;2022-11-13T10:06:33;8.77;;;4.53;;
57105;SDS011;62662;56.788;23.942;2022-11-13T10:12:26;7.60;;;3.22;;
57105;SDS011;62662;56.788;23.942;2022-11-13T10:15:00;8.75;;;4.45;;
57105;SDS011;62662;56.788;23.942;2022-11-13T10:17:47;7.65;;;3.60;;
57105;SDS011;62662;56.788;23.942;2022-11-13T10:20:24;12.05;;;6.15;;
57105;SDS011;62662;56.788;23.942;2022-11-13T10:23:18;11.02;;;5.70;;
57105;SDS011;62662;56.788;23.942;2022-11-13T10:25:47;7.53;;;4.28;;
57105;SDS011;62662;56.788;23.942;2022-11-13T10:28:18;11.68;;;5.53;;
57105;SDS011;62662;56.788;23.942;2022-11-13T10:31:10;8.13;;;3.25;;
57105;SDS011;62662;56.788;23.942;2022-11-13T10:33:37;5.32;;;2.63;;
57105;SDS011;62662;56.788;23.942;2022-11-13T10:39:05;5.90;;;2.30;;
57105;SDS011;62662;56.788;23.942;2022-11-13T10:41:47;7.55;;;2.03;;
57105;SDS011;62662;56.788;23.942;2022-11-13T10:44:33;12.48;;;2.60;;
57105;SDS011;62662;56.788;23.942;2022-11-13T10:47:05;7.22;;;3.13;;
57105;SDS011;62662;56.788;23.942;2022-11-13T10:49:53;5.82;;;2.38;;
57105;SDS011;62662;56.788;23.942;2022-11-13T10:52:25;5.13;;;2.47;;
57105;SDS011;62662;56.788;23.942;2022-11-13T10:57:54;6.53;;;2.45;;
57105;SDS011;62662;56.788;23.942;2022-11-13T11:00:30;6.97;;;2.30;;
57105;SDS011;62662;56.788;23.942;2022-11-13T11:02:58;5.68;;;2.42;;
57105;SDS011;62662;56.788;23.942;2022-11-13T11:05:26;13.07;;;4.10;;
57105;SDS011;62662;56.788;23.942;2022-11-13T11:07:54;13.02;;;5.18;;
57105;SDS011;62662;56.788;23.942;2022-11-13T11:10:33;12.40;;;4.45;;
57105;SDS011;62662;56.788;23.942;2022-11-13T11:13:04;11.60;;;4.22;;
57105;SDS011;62662;56.788;23.942;2022-11-13T11:15:43;8.43;;;3.75;;
57105;SDS011;62662;56.788;23.942;2022-11-13T11:18:27;6.88;;;2.67;;
57105;SDS011;62662;56.788;23.942;2022-11-13T11:21:00;8.27;;;2.58;;
57105;SDS011;62662;56.788;23.942;2022-11-13T11:26:53;9.88;;;2.47;;
57105;SDS011;62662;56.788;23.942;2022-11-13T11:29:36;7.95;;;3.10;;
57105;SDS011;62662;56.788;23.942;2022-11-13T11:32:17;8.18;;;2.72;;
57105;SDS011;62662;56.788;23.942;2022-11-13T11:34:54;10.38;;;3.55;;
57105;SDS011;62662;56.788;23.942;2022-11-13T11:37:34;11.40;;;3.20;;
57105;SDS011;62662;56.788;23.942;2022-11-13T11:43:05;12.02;;;3.97;;
57105;SDS011;62662;56.788;23.942;2022-11-13T11:46:10;11.60;;;4.90;;
57105;SDS011;62662;56.788;23.942;2022-11-13T11:48:39;14.57;;;4.15;;
57105;SDS011;62662;56.788;23.942;2022-11-13T11:59:10;10.55;;;3.33;;
57105;SDS011;62662;56.788;23.942;2022-11-13T12:01:49;8.75;;;3.15;;
57105;SDS011;62662;56.788;23.942;2022-11-13T12:04:52;10.05;;;3.08;;
57105;SDS011;62662;56.788;23.942;2022-11-13T12:07:38;8.90;;;2.72;;
57105;SDS011;62662;56.788;23.942;2022-11-13T12:13:09;8.30;;;3.03;;
57105;SDS011;62662;56.788;23.942;2022-11-13T12:16:07;6.07;;;2.15;;
57105;SDS011;62662;56.788;23.942;2022-11-13T12:26:34;7.82;;;2.83;;
57105;SDS011;62662;56.788;23.942;2022-11-13T12:34:54;5.37;;;2.97;;
57105;SDS011;62662;56.788;23.942;2022-11-13T12:37:32;18.08;;;4.68;;
57105;SDS011;62662;56.788;23.942;2022-11-13T12:40:18;14.35;;;3.45;;
57105;SDS011;62662;56.788;23.942;2022-11-13T12:45:57;8.93;;;2.92;;
57105;SDS011;62662;56.788;23.942;2022-11-13T12:48:43;9.68;;;2.58;;
57105;SDS011;62662;56.788;23.942;2022-11-13T12:51:16;8.77;;;2.67;;
57105;SDS011;62662;56.788;23.942;2022-11-13T12:53:48;7.57;;;2.30;;
57105;SDS011;62662;56.788;23.942;2022-11-13T12:56:31;6.95;;;2.83;;
57105;SDS011;62662;56.788;23.942;2022-11-13T12:59:00;11.98;;;3.10;;
57105;SDS011;62662;56.788;23.942;2022-11-13T13:02:00;9.30;;;2.90;;
57105;SDS011;62662;56.788;23.942;2022-11-13T13:15:41;8.52;;;3.28;;
57105;SDS011;62662;56.788;23.942;2022-11-13T13:18:23;11.43;;;3.50;;
57105;SDS011;62662;56.788;23.942;2022-11-13T13:20:58;8.07;;;3.15;;
57105;SDS011;62662;56.788;23.942;2022-11-13T13:23:35;9.90;;;3.42;;
57105;SDS011;62662;56.788;23.942;2022-11-13T13:26:04;8.65;;;2.80;;
57105;SDS011;62662;56.788;23.942;2022-11-13T13:28:54;12.85;;;3.83;;
57105;SDS011;62662;56.788;23.942;2022-11-13T13:31:48;9.55;;;3.15;;
57105;SDS011;62662;56.788;23.942;2022-11-13T13:45:42;7.30;;;3.58;;
57105;SDS011;62662;56.788;23.942;2022-11-13T13:48:29;15.00;;;5.28;;
57105;SDS011;62662;56.788;23.942;2022-11-13T13:50:57;8.95;;;4.20;;
57105;SDS011;62662;56.788;23.942;2022-11-13T13:53:27;16.67;;;5.30;;
57105;SDS011;62662;56.788;23.942;2022-11-13T13:55:57;11.90;;;5.97;;
57105;SDS011;62662;56.788;23.942;2022-11-13T13:58:25;14.70;;;5.97;;
57105;SDS011;62662;56.788;23.942;2022-11-13T14:01:10;15.68;;;4.88;;
57105;SDS011;62662;56.788;23.942;2022-11-13T14:03:45;17.75;;;7.50;;
57105;SDS011;62662;56.788;23.942;2022-11-13T14:06:19;26.17;;;10.77;;
57105;SDS011;62662;56.788;23.942;2022-11-13T14:08:47;20.00;;;7.95;;
57105;SDS011;62662;56.788;23.942;2022-11-13T14:11:24;15.32;;;7.45;;
57105;SDS011;62662;56.788;23.942;2022-11-13T14:14:05;24.05;;;9.90;;
57105;SDS011;62662;56.788;23.942;2022-11-13T14:16:44;15.00;;;7.38;;
57105;SDS011;62662;56.788;23.942;2022-11-13T14:19:16;22.10;;;6.72;;
57105;SDS011;62662;56.788;23.942;2022-11-13T14:21:44;12.90;;;5.05;;
57105;SDS011;62662;56.788;23.942;2022-11-13T14:24:27;14.07;;;5.15;;
57105;SDS011;62662;56.788;23.942;2022-11-13T14:27:04;15.00;;;6.20;;
57105;SDS011;62662;56.788;23.942;2022-11-13T14:29:34;22.83;;;6.75;;
57105;SDS011;62662;56.788;23.942;2022-11-13T14:32:13;15.85;;;6.00;;
57105;SDS011;62662;56.788;23.942;2022-11-13T14:34:44;12.57;;;5.63;;
57105;SDS011;62662;56.788;23.942;2022-11-13T14:39:44;21.15;;;7.55;;
57105;SDS011;62662;56.788;23.942;2022-11-13T14:42:15;25.50;;;8.32;;
57105;SDS011;62662;56.788;23.942;2022-11-13T14:45:13;19.35;;;7.13;;
57105;SDS011;62662;56.788;23.942;2022-11-13T14:48:01;13.45;;;6.25;;
57105;SDS011;62662;56.788;23.942;2022-11-13T14:50:50;13.30;;;5.80;;
57105;SDS011;62662;56.788;23.942;2022-11-13T14:55:58;20.35;;;5.75;;
57105;SDS011;62662;56.788;23.942;2022-11-13T14:58:32;15.52;;;6.07;;
57105;SDS011;62662;56.788;23.942;2022-11-13T15:01:16;19.30;;;6.93;;
57105;SDS011;62662;56.788;23.942;2022-11-13T15:03:46;18.23;;;6.20;;
57105;SDS011;62662;56.788;23.942;2022-11-13T15:06:18;29.25;;;9.32;;
57105;SDS011;62662;56.788;23.942;2022-11-13T15:08:47;13.32;;;6.22;;
57105;SDS011;62662;56.788;23.942;2022-11-13T15:11:16;19.30;;;7.95;;
57105;SDS011;62662;56.788;23.942;2022-11-13T15:13:45;15.57;;;5.50;;
57105;SDS011;62662;56.788;23.942;2022-11-13T15:16:19;21.17;;;6.30;;
57105;SDS011;62662;56.788;23.942;2022-11-13T15:19:32;24.60;;;8.35;;
57105;SDS011;62662;56.788;23.942;2022-11-13T15:21:41;15.60;;;6.50;;
57105;SDS011;62662;56.788;23.942;2022-11-13T15:24:30;17.52;;;7.05;;
57105;SDS011;62662;56.788;23.942;2022-11-13T15:26:57;19.85;;;7.90;;
57105;SDS011;62662;56.788;23.942;2022-11-13T15:29:24;28.95;;;9.45;;
57105;SDS011;62662;56.788;23.942;2022-11-13T15:31:51;19.63;;;8.90;;
57105;SDS011;62662;56.788;23.942;2022-11-13T15:34:18;57.50;;;23.88;;
57105;SDS011;62662;56.788;23.942;2022-11-13T15:36:45;29.63;;;12.02;;
57105;SDS011;62662;56.788;23.942;2022-11-13T15:39:12;34.13;;;14.25;;
57105;SDS011;62662;56.788;23.942;2022-11-13T15:41:48;43.38;;;17.20;;
57105;SDS011;62662;56.788;23.942;2022-11-13T15:44:15;34.90;;;16.92;;
57105;SDS011;62662;56.788;23.942;2022-11-13T15:46:43;40.42;;;15.75;;
57105;SDS011;62662;56.788;23.942;2022-11-13T15:49:10;27.80;;;13.90;;
57105;SDS011;62662;56.788;23.942;2022-11-13T15:51:41;36.45;;;14.95;;
57105;SDS011;62662;56.788;23.942;2022-11-13T15:56:54;28.35;;;12.77;;
57105;SDS011;62662;56.788;23.942;2022-11-13T15:59:21;28.13;;;14.07;;
57105;SDS011;62662;56.788;23.942;2022-11-13T16:01:48;61.58;;;27.15;;
57105;SDS011;62662;56.788;23.942;2022-11-13T16:04:22;47.85;;;20.52;;
57105;SDS011;62662;56.788;23.942;2022-11-13T16:06:51;35.83;;;15.98;;
57105;SDS011;62662;56.788;23.942;2022-11-13T16:09:19;47.13;;;24.50;;
57105;SDS011;62662;56.788;23.942;2022-11-13T16:11:46;48.28;;;21.20;;
57105;SDS011;62662;56.788;23.942;2022-11-13T16:14:14;46.38;;;22.23;;